sensor_id;sensor_type;location;lat;lon;timestamp;P1;durP1;ratioP1;P2;durP2;ratioP2
17369;SDS011;8802;52.402;4.920;2023-10-08T00:02:22;11.45;;;5.97;;
17369;SDS011;8802;52.402;4.920;2023-10-08T00:04:51;11.30;;;5.03;;
17369;SDS011;8802;52.402;4.920;2023-10-08T00:07:20;11.38;;;4.93;;
17369;SDS011;8802;52.402;4.920;2023-10-08T00:09:49;12.13;;;5.55;;
17369;SDS011;8802;52.402;4.920;2023-10-08T00:12:17;13.32;;;5.80;;
17369;SDS011;8802;52.402;4.920;2023-10-08T00:14:45;11.93;;;5.78;;
17369;SDS011;8802;52.402;4.920;2023-10-08T00:17:14;10.15;;;5.60;;
17369;SDS011;8802;52.402;4.920;2023-10-08T00:19:42;11.55;;;5.97;;
17369;SDS011;8802;52.402;4.920;2023-10-08T00:22:09;13.27;;;6.03;;
17369;SDS011;8802;52.402;4.920;2023-10-08T00:24:39;12.40;;;4.68;;
17369;SDS011;8802;52.402;4.920;2023-10-08T00:27:07;15.80;;;5.80;;
17369;SDS011;8802;52.402;4.920;2023-10-08T00:29:35;11.18;;;5.15;;
17369;SDS011;8802;52.402;4.920;2023-10-08T00:32:07;12.77;;;5.90;;
17369;SDS011;8802;52.402;4.920;2023-10-08T00:34:42;8.82;;;5.10;;
17369;SDS011;8802;52.402;4.920;2023-10-08T00:37:09;14.27;;;6.68;;
17369;SDS011;8802;52.402;4.920;2023-10-08T00:39:41;12.40;;;5.35;;
17369;SDS011;8802;52.402;4.920;2023-10-08T00:42:08;11.70;;;5.80;;
17369;SDS011;8802;52.402;4.920;2023-10-08T00:44:38;12.15;;;5.18;;
17369;SDS011;8802;52.402;4.920;2023-10-08T00:47:12;11.25;;;5.40;;
17369;SDS011;8802;52.402;4.920;2023-10-08T00:49:41;7.95;;;5.22;;
17369;SDS011;8802;52.402;4.920;2023-10-08T00:52:27;13.15;;;5.95;;
17369;SDS011;8802;52.402;4.920;2023-10-08T00:55:07;10.38;;;5.63;;
17369;SDS011;8802;52.402;4.920;2023-10-08T00:57:39;8.43;;;4.45;;
17369;SDS011;8802;52.402;4.920;2023-10-08T01:00:09;13.30;;;6.15;;
17369;SDS011;8802;52.402;4.920;2023-10-08T01:02:46;8.57;;;4.97;;
17369;SDS011;8802;52.402;4.920;2023-10-08T01:05:20;13.43;;;6.10;;
17369;SDS011;8802;52.402;4.920;2023-10-08T01:07:55;11.23;;;5.47;;
17369;SDS011;8802;52.402;4.920;2023-10-08T01:10:25;9.23;;;5.32;;
17369;SDS011;8802;52.402;4.920;2023-10-08T01:12:52;9.80;;;5.53;;
17369;SDS011;8802;52.402;4.920;2023-10-08T01:15:30;11.98;;;5.20;;
17369;SDS011;8802;52.402;4.920;2023-10-08T01:18:01;7.53;;;4.82;;
17369;SDS011;8802;52.402;4.920;2023-10-08T01:20:30;10.70;;;5.35;;
17369;SDS011;8802;52.402;4.920;2023-10-08T01:23:03;13.18;;;5.85;;
17369;SDS011;8802;52.402;4.920;2023-10-08T01:25:34;11.98;;;5.32;;
17369;SDS011;8802;52.402;4.920;2023-10-08T01:28:04;17.17;;;6.65;;
17369;SDS011;8802;52.402;4.920;2023-10-08T01:30:40;12.55;;;5.40;;
17369;SDS011;8802;52.402;4.920;2023-10-08T01:33:13;11.60;;;5.40;;
17369;SDS011;8802;52.402;4.920;2023-10-08T01:35:41;13.73;;;5.85;;
17369;SDS011;8802;52.402;4.920;2023-10-08T01:38:09;10.00;;;5.65;;
17369;SDS011;8802;52.402;4.920;2023-10-08T01:40:39;13.43;;;6.00;;
17369;SDS011;8802;52.402;4.920;2023-10-08T01:43:06;9.80;;;5.05;;
17369;SDS011;8802;52.402;4.920;2023-10-08T01:45:35;7.60;;;4.80;;
17369;SDS011;8802;52.402;4.920;2023-10-08T01:48:06;13.48;;;6.07;;
17369;SDS011;8802;52.402;4.920;2023-10-08T01:50:34;12.88;;;5.93;;
17369;SDS011;8802;52.402;4.920;2023-10-08T01:53:02;13.20;;;6.22;;
17369;SDS011;8802;52.402;4.920;2023-10-08T01:55:33;15.50;;;6.00;;
17369;SDS011;8802;52.402;4.920;2023-10-08T01:58:12;9.02;;;5.38;;
17369;SDS011;8802;52.402;4.920;2023-10-08T02:00:41;12.13;;;5.80;;
17369;SDS011;8802;52.402;4.920;2023-10-08T02:03:10;10.68;;;6.40;;
17369;SDS011;8802;52.402;4.920;2023-10-08T02:05:38;10.20;;;4.95;;
17369;SDS011;8802;52.402;4.920;2023-10-08T02:08:07;13.13;;;6.18;;
17369;SDS011;8802;52.402;4.920;2023-10-08T02:10:36;14.43;;;6.55;;
17369;SDS011;8802;52.402;4.920;2023-10-08T02:13:04;13.90;;;5.82;;
17369;SDS011;8802;52.402;4.920;2023-10-08T02:15:31;13.55;;;6.78;;
17369;SDS011;8802;52.402;4.920;2023-10-08T02:17:58;14.38;;;5.95;;
17369;SDS011;8802;52.402;4.920;2023-10-08T02:20:25;12.68;;;5.60;;
17369;SDS011;8802;52.402;4.920;2023-10-08T02:22:52;10.35;;;5.28;;
17369;SDS011;8802;52.402;4.920;2023-10-08T02:25:20;15.35;;;6.38;;
17369;SDS011;8802;52.402;4.920;2023-10-08T02:27:49;12.27;;;6.05;;
17369;SDS011;8802;52.402;4.920;2023-10-08T02:30:16;15.80;;;6.47;;
17369;SDS011;8802;52.402;4.920;2023-10-08T02:32:43;12.98;;;5.88;;
17369;SDS011;8802;52.402;4.920;2023-10-08T02:35:11;16.27;;;6.80;;
17369;SDS011;8802;52.402;4.920;2023-10-08T02:37:38;14.55;;;5.35;;
17369;SDS011;8802;52.402;4.920;2023-10-08T02:40:06;10.15;;;4.47;;
17369;SDS011;8802;52.402;4.920;2023-10-08T02:42:41;8.00;;;3.38;;
17369;SDS011;8802;52.402;4.920;2023-10-08T02:45:11;7.90;;;3.00;;
17369;SDS011;8802;52.402;4.920;2023-10-08T02:47:40;9.45;;;2.55;;
17369;SDS011;8802;52.402;4.920;2023-10-08T02:50:09;8.95;;;2.40;;
17369;SDS011;8802;52.402;4.920;2023-10-08T02:52:37;5.32;;;1.88;;
17369;SDS011;8802;52.402;4.920;2023-10-08T02:55:04;8.73;;;2.03;;
17369;SDS011;8802;52.402;4.920;2023-10-08T02:57:43;5.75;;;1.90;;
17369;SDS011;8802;52.402;4.920;2023-10-08T03:00:12;6.82;;;1.75;;
17369;SDS011;8802;52.402;4.920;2023-10-08T03:02:40;6.05;;;1.52;;
17369;SDS011;8802;52.402;4.920;2023-10-08T03:05:07;5.93;;;1.52;;
17369;SDS011;8802;52.402;4.920;2023-10-08T03:07:38;6.20;;;1.95;;
17369;SDS011;8802;52.402;4.920;2023-10-08T03:10:05;5.15;;;1.45;;
17369;SDS011;8802;52.402;4.920;2023-10-08T03:12:42;3.80;;;1.23;;
17369;SDS011;8802;52.402;4.920;2023-10-08T03:15:13;3.03;;;1.40;;
17369;SDS011;8802;52.402;4.920;2023-10-08T03:17:54;2.65;;;1.10;;
17369;SDS011;8802;52.402;4.920;2023-10-08T03:20:22;4.45;;;1.05;;
17369;SDS011;8802;52.402;4.920;2023-10-08T03:23:03;4.45;;;1.08;;
17369;SDS011;8802;52.402;4.920;2023-10-08T03:25:37;1.65;;;0.68;;
17369;SDS011;8802;52.402;4.920;2023-10-08T03:28:06;3.08;;;0.73;;
17369;SDS011;8802;52.402;4.920;2023-10-08T03:30:39;1.75;;;0.60;;
17369;SDS011;8802;52.402;4.920;2023-10-08T03:33:15;3.30;;;0.75;;
17369;SDS011;8802;52.402;4.920;2023-10-08T03:35:47;2.83;;;0.80;;
17369;SDS011;8802;52.402;4.920;2023-10-08T03:38:17;1.50;;;0.60;;
17369;SDS011;8802;52.402;4.920;2023-10-08T03:40:47;0.80;;;0.40;;
17369;SDS011;8802;52.402;4.920;2023-10-08T03:43:15;1.25;;;0.50;;
17369;SDS011;8802;52.402;4.920;2023-10-08T03:45:50;1.73;;;0.50;;
17369;SDS011;8802;52.402;4.920;2023-10-08T03:48:24;0.43;;;0.40;;
17369;SDS011;8802;52.402;4.920;2023-10-08T03:50:55;1.05;;;0.32;;
17369;SDS011;8802;52.402;4.920;2023-10-08T03:53:31;1.45;;;0.60;;
17369;SDS011;8802;52.402;4.920;2023-10-08T03:56:02;1.48;;;0.63;;
17369;SDS011;8802;52.402;4.920;2023-10-08T03:58:31;2.33;;;0.93;;
17369;SDS011;8802;52.402;4.920;2023-10-08T04:01:07;2.85;;;0.90;;
17369;SDS011;8802;52.402;4.920;2023-10-08T04:03:36;1.02;;;0.57;;
17369;SDS011;8802;52.402;4.920;2023-10-08T04:06:23;1.85;;;0.90;;
17369;SDS011;8802;52.402;4.920;2023-10-08T04:08:55;1.85;;;1.08;;
17369;SDS011;8802;52.402;4.920;2023-10-08T04:11:36;2.67;;;0.90;;
17369;SDS011;8802;52.402;4.920;2023-10-08T04:14:16;4.60;;;1.40;;
17369;SDS011;8802;52.402;4.920;2023-10-08T04:16:45;2.13;;;1.48;;
17369;SDS011;8802;52.402;4.920;2023-10-08T04:19:16;1.70;;;1.60;;
17369;SDS011;8802;52.402;4.920;2023-10-08T04:21:43;4.18;;;1.95;;
17369;SDS011;8802;52.402;4.920;2023-10-08T04:24:15;3.78;;;1.90;;
17369;SDS011;8802;52.402;4.920;2023-10-08T04:26:45;3.20;;;1.90;;
17369;SDS011;8802;52.402;4.920;2023-10-08T04:29:13;3.28;;;2.00;;
17369;SDS011;8802;52.402;4.920;2023-10-08T04:31:41;5.38;;;2.10;;
17369;SDS011;8802;52.402;4.920;2023-10-08T04:34:13;2.97;;;2.00;;
17369;SDS011;8802;52.402;4.920;2023-10-08T04:36:42;4.43;;;2.85;;
17369;SDS011;8802;52.402;4.920;2023-10-08T04:39:10;3.72;;;2.42;;
17369;SDS011;8802;52.402;4.920;2023-10-08T04:41:40;3.83;;;2.85;;
17369;SDS011;8802;52.402;4.920;2023-10-08T04:44:08;2.80;;;2.22;;
17369;SDS011;8802;52.402;4.920;2023-10-08T04:46:39;3.45;;;2.33;;
17369;SDS011;8802;52.402;4.920;2023-10-08T04:49:14;3.40;;;2.33;;
17369;SDS011;8802;52.402;4.920;2023-10-08T04:51:54;2.83;;;2.42;;
17369;SDS011;8802;52.402;4.920;2023-10-08T04:54:24;3.72;;;2.33;;
17369;SDS011;8802;52.402;4.920;2023-10-08T04:56:55;2.88;;;2.22;;
17369;SDS011;8802;52.402;4.920;2023-10-08T04:59:23;2.20;;;2.00;;
17369;SDS011;8802;52.402;4.920;2023-10-08T05:01:57;2.70;;;1.73;;
17369;SDS011;8802;52.402;4.920;2023-10-08T05:04:40;2.67;;;1.58;;
17369;SDS011;8802;52.402;4.920;2023-10-08T05:07:21;3.38;;;1.50;;
17369;SDS011;8802;52.402;4.920;2023-10-08T05:10:06;1.98;;;1.50;;
17369;SDS011;8802;52.402;4.920;2023-10-08T05:12:57;2.13;;;1.20;;
17369;SDS011;8802;52.402;4.920;2023-10-08T05:15:40;2.05;;;1.30;;
17369;SDS011;8802;52.402;4.920;2023-10-08T05:18:15;1.67;;;1.00;;
17369;SDS011;8802;52.402;4.920;2023-10-08T05:20:50;1.60;;;1.20;;
17369;SDS011;8802;52.402;4.920;2023-10-08T05:23:27;2.00;;;1.40;;
17369;SDS011;8802;52.402;4.920;2023-10-08T05:26:18;1.50;;;1.27;;
17369;SDS011;8802;52.402;4.920;2023-10-08T05:28:56;2.05;;;1.67;;
17369;SDS011;8802;52.402;4.920;2023-10-08T05:31:49;3.78;;;1.30;;
17369;SDS011;8802;52.402;4.920;2023-10-08T05:34:38;2.33;;;1.10;;
17369;SDS011;8802;52.402;4.920;2023-10-08T05:37:23;1.92;;;1.10;;
17369;SDS011;8802;52.402;4.920;2023-10-08T05:40:02;2.25;;;1.10;;
17369;SDS011;8802;52.402;4.920;2023-10-08T05:42:38;2.47;;;0.95;;
17369;SDS011;8802;52.402;4.920;2023-10-08T05:45:11;0.88;;;0.70;;
17369;SDS011;8802;52.402;4.920;2023-10-08T05:47:54;1.20;;;0.93;;
17369;SDS011;8802;52.402;4.920;2023-10-08T05:50:39;1.02;;;0.93;;
17369;SDS011;8802;52.402;4.920;2023-10-08T05:53:09;1.75;;;1.40;;
17369;SDS011;8802;52.402;4.920;2023-10-08T05:55:55;1.58;;;1.10;;
17369;SDS011;8802;52.402;4.920;2023-10-08T05:58:41;3.15;;;1.33;;
17369;SDS011;8802;52.402;4.920;2023-10-08T06:01:25;2.85;;;1.40;;
17369;SDS011;8802;52.402;4.920;2023-10-08T06:04:04;1.85;;;1.23;;
17369;SDS011;8802;52.402;4.920;2023-10-08T06:06:46;1.52;;;1.42;;
17369;SDS011;8802;52.402;4.920;2023-10-08T06:09:24;2.65;;;1.55;;
17369;SDS011;8802;52.402;4.920;2023-10-08T06:12:00;1.73;;;1.60;;
17369;SDS011;8802;52.402;4.920;2023-10-08T06:14:44;1.92;;;1.38;;
17369;SDS011;8802;52.402;4.920;2023-10-08T06:17:29;2.33;;;1.30;;
17369;SDS011;8802;52.402;4.920;2023-10-08T06:20:13;1.35;;;1.10;;
17369;SDS011;8802;52.402;4.920;2023-10-08T06:22:42;3.45;;;1.35;;
17369;SDS011;8802;52.402;4.920;2023-10-08T06:25:11;2.88;;;1.30;;
17369;SDS011;8802;52.402;4.920;2023-10-08T06:27:48;1.25;;;1.10;;
17369;SDS011;8802;52.402;4.920;2023-10-08T06:30:19;1.00;;;0.90;;
17369;SDS011;8802;52.402;4.920;2023-10-08T06:32:46;0.88;;;0.70;;
17369;SDS011;8802;52.402;4.920;2023-10-08T06:35:15;1.02;;;0.77;;
17369;SDS011;8802;52.402;4.920;2023-10-08T06:37:44;2.15;;;0.90;;
17369;SDS011;8802;52.402;4.920;2023-10-08T06:40:15;0.95;;;0.55;;
17369;SDS011;8802;52.402;4.920;2023-10-08T06:42:56;1.10;;;0.50;;
17369;SDS011;8802;52.402;4.920;2023-10-08T06:45:28;0.68;;;0.45;;
17369;SDS011;8802;52.402;4.920;2023-10-08T06:47:57;2.80;;;0.50;;
17369;SDS011;8802;52.402;4.920;2023-10-08T06:50:31;2.20;;;0.55;;
17369;SDS011;8802;52.402;4.920;2023-10-08T06:53:01;1.85;;;0.30;;
17369;SDS011;8802;52.402;4.920;2023-10-08T06:55:33;0.93;;;0.32;;
17369;SDS011;8802;52.402;4.920;2023-10-08T06:58:01;1.48;;;0.30;;
17369;SDS011;8802;52.402;4.920;2023-10-08T07:00:31;1.52;;;0.35;;
17369;SDS011;8802;52.402;4.920;2023-10-08T07:03:07;2.83;;;0.50;;
17369;SDS011;8802;52.402;4.920;2023-10-08T07:05:36;1.02;;;0.30;;
17369;SDS011;8802;52.402;4.920;2023-10-08T07:08:06;1.08;;;0.47;;
17369;SDS011;8802;52.402;4.920;2023-10-08T07:10:36;1.67;;;0.32;;
17369;SDS011;8802;52.402;4.920;2023-10-08T07:13:03;2.13;;;0.68;;
17369;SDS011;8802;52.402;4.920;2023-10-08T07:15:33;2.05;;;0.40;;
17369;SDS011;8802;52.402;4.920;2023-10-08T07:18:03;2.40;;;0.80;;
17369;SDS011;8802;52.402;4.920;2023-10-08T07:20:35;0.80;;;0.35;;
17369;SDS011;8802;52.402;4.920;2023-10-08T07:23:05;3.53;;;0.68;;
17369;SDS011;8802;52.402;4.920;2023-10-08T07:25:45;4.55;;;0.93;;
17369;SDS011;8802;52.402;4.920;2023-10-08T07:28:18;2.45;;;0.70;;
17369;SDS011;8802;52.402;4.920;2023-10-08T07:30:46;2.05;;;0.68;;
17369;SDS011;8802;52.402;4.920;2023-10-08T07:33:14;2.25;;;0.80;;
17369;SDS011;8802;52.402;4.920;2023-10-08T07:35:44;0.93;;;0.70;;
17369;SDS011;8802;52.402;4.920;2023-10-08T07:38:22;2.53;;;0.60;;
17369;SDS011;8802;52.402;4.920;2023-10-08T07:40:53;1.42;;;0.50;;
17369;SDS011;8802;52.402;4.920;2023-10-08T07:43:21;1.70;;;0.55;;
17369;SDS011;8802;52.402;4.920;2023-10-08T07:45:48;3.05;;;0.77;;
17369;SDS011;8802;52.402;4.920;2023-10-08T07:48:19;2.60;;;0.50;;
17369;SDS011;8802;52.402;4.920;2023-10-08T07:50:48;0.63;;;0.38;;
17369;SDS011;8802;52.402;4.920;2023-10-08T07:53:16;1.17;;;0.40;;
17369;SDS011;8802;52.402;4.920;2023-10-08T07:55:46;3.03;;;0.60;;
17369;SDS011;8802;52.402;4.920;2023-10-08T07:58:15;1.20;;;0.50;;
17369;SDS011;8802;52.402;4.920;2023-10-08T08:00:42;1.40;;;0.50;;
17369;SDS011;8802;52.402;4.920;2023-10-08T08:03:19;1.88;;;0.80;;
17369;SDS011;8802;52.402;4.920;2023-10-08T08:05:46;1.50;;;0.47;;
17369;SDS011;8802;52.402;4.920;2023-10-08T08:08:17;1.35;;;0.60;;
17369;SDS011;8802;52.402;4.920;2023-10-08T08:10:47;0.82;;;0.57;;
17369;SDS011;8802;52.402;4.920;2023-10-08T08:13:16;2.08;;;0.57;;
17369;SDS011;8802;52.402;4.920;2023-10-08T08:15:46;2.17;;;0.77;;
17369;SDS011;8802;52.402;4.920;2023-10-08T08:18:16;4.03;;;0.77;;
17369;SDS011;8802;52.402;4.920;2023-10-08T08:20:48;1.05;;;0.47;;
17369;SDS011;8802;52.402;4.920;2023-10-08T08:23:15;1.50;;;0.63;;
17369;SDS011;8802;52.402;4.920;2023-10-08T08:25:42;1.80;;;0.65;;
17369;SDS011;8802;52.402;4.920;2023-10-08T08:28:32;3.70;;;0.90;;
17369;SDS011;8802;52.402;4.920;2023-10-08T08:31:02;2.97;;;0.70;;
17369;SDS011;8802;52.402;4.920;2023-10-08T08:33:33;3.40;;;0.73;;
17369;SDS011;8802;52.402;4.920;2023-10-08T08:36:17;2.28;;;0.73;;
17369;SDS011;8802;52.402;4.920;2023-10-08T08:38:45;2.15;;;0.60;;
17369;SDS011;8802;52.402;4.920;2023-10-08T08:41:12;4.28;;;0.90;;
17369;SDS011;8802;52.402;4.920;2023-10-08T08:43:44;1.85;;;0.77;;
17369;SDS011;8802;52.402;4.920;2023-10-08T08:46:14;2.15;;;0.88;;
17369;SDS011;8802;52.402;4.920;2023-10-08T08:48:42;2.88;;;0.60;;
17369;SDS011;8802;52.402;4.920;2023-10-08T08:51:10;1.60;;;0.52;;
17369;SDS011;8802;52.402;4.920;2023-10-08T08:53:38;2.08;;;0.47;;
17369;SDS011;8802;52.402;4.920;2023-10-08T08:56:07;2.78;;;0.88;;
17369;SDS011;8802;52.402;4.920;2023-10-08T08:58:35;1.00;;;0.57;;
17369;SDS011;8802;52.402;4.920;2023-10-08T09:01:05;2.50;;;0.77;;
17369;SDS011;8802;52.402;4.920;2023-10-08T09:03:34;1.85;;;0.98;;
17369;SDS011;8802;52.402;4.920;2023-10-08T09:06:02;3.70;;;1.08;;
17369;SDS011;8802;52.402;4.920;2023-10-08T09:08:32;1.60;;;0.90;;
17369;SDS011;8802;52.402;4.920;2023-10-08T09:11:00;2.00;;;1.00;;
17369;SDS011;8802;52.402;4.920;2023-10-08T09:13:29;1.63;;;0.80;;
17369;SDS011;8802;52.402;4.920;2023-10-08T09:15:58;1.20;;;0.80;;
17369;SDS011;8802;52.402;4.920;2023-10-08T09:18:31;1.45;;;0.60;;
17369;SDS011;8802;52.402;4.920;2023-10-08T09:21:06;1.63;;;0.80;;
17369;SDS011;8802;52.402;4.920;2023-10-08T09:23:38;1.77;;;0.70;;
17369;SDS011;8802;52.402;4.920;2023-10-08T09:26:09;2.55;;;0.73;;
17369;SDS011;8802;52.402;4.920;2023-10-08T09:28:39;3.53;;;0.70;;
17369;SDS011;8802;52.402;4.920;2023-10-08T09:31:09;1.90;;;0.60;;
17369;SDS011;8802;52.402;4.920;2023-10-08T09:33:39;1.52;;;0.70;;
17369;SDS011;8802;52.402;4.920;2023-10-08T09:36:06;2.08;;;0.60;;
17369;SDS011;8802;52.402;4.920;2023-10-08T09:38:36;3.58;;;0.70;;
17369;SDS011;8802;52.402;4.920;2023-10-08T09:41:03;2.33;;;0.80;;
17369;SDS011;8802;52.402;4.920;2023-10-08T09:43:33;1.95;;;0.50;;
17369;SDS011;8802;52.402;4.920;2023-10-08T09:46:03;2.45;;;0.52;;
17369;SDS011;8802;52.402;4.920;2023-10-08T09:48:36;2.30;;;1.00;;
17369;SDS011;8802;52.402;4.920;2023-10-08T09:51:09;4.47;;;0.60;;
17369;SDS011;8802;52.402;4.920;2023-10-08T09:53:41;3.30;;;0.73;;
17369;SDS011;8802;52.402;4.920;2023-10-08T09:56:14;1.48;;;0.50;;
17369;SDS011;8802;52.402;4.920;2023-10-08T09:58:43;2.80;;;0.60;;
17369;SDS011;8802;52.402;4.920;2023-10-08T10:01:11;4.72;;;0.63;;
17369;SDS011;8802;52.402;4.920;2023-10-08T10:03:40;1.20;;;0.57;;
17369;SDS011;8802;52.402;4.920;2023-10-08T10:06:14;1.83;;;0.60;;
17369;SDS011;8802;52.402;4.920;2023-10-08T10:08:43;3.15;;;0.93;;
17369;SDS011;8802;52.402;4.920;2023-10-08T10:11:11;2.83;;;0.68;;
17369;SDS011;8802;52.402;4.920;2023-10-08T10:13:38;3.30;;;0.70;;
17369;SDS011;8802;52.402;4.920;2023-10-08T10:16:09;2.17;;;0.47;;
17369;SDS011;8802;52.402;4.920;2023-10-08T10:18:39;2.35;;;0.73;;
17369;SDS011;8802;52.402;4.920;2023-10-08T10:21:24;1.30;;;0.60;;
17369;SDS011;8802;52.402;4.920;2023-10-08T10:23:53;3.33;;;0.77;;
17369;SDS011;8802;52.402;4.920;2023-10-08T10:26:22;2.45;;;0.80;;
17369;SDS011;8802;52.402;4.920;2023-10-08T10:31:47;2.65;;;0.70;;
17369;SDS011;8802;52.402;4.920;2023-10-08T10:34:19;3.45;;;0.80;;
17369;SDS011;8802;52.402;4.920;2023-10-08T10:36:50;1.85;;;0.60;;
17369;SDS011;8802;52.402;4.920;2023-10-08T10:39:21;2.08;;;0.65;;
17369;SDS011;8802;52.402;4.920;2023-10-08T10:41:52;3.55;;;0.70;;
17369;SDS011;8802;52.402;4.920;2023-10-08T10:44:22;0.80;;;0.50;;
17369;SDS011;8802;52.402;4.920;2023-10-08T10:46:50;3.10;;;0.82;;
17369;SDS011;8802;52.402;4.920;2023-10-08T10:49:17;2.28;;;0.77;;
17369;SDS011;8802;52.402;4.920;2023-10-08T10:51:45;1.98;;;0.80;;
17369;SDS011;8802;52.402;4.920;2023-10-08T10:54:15;5.50;;;1.88;;
17369;SDS011;8802;52.402;4.920;2023-10-08T10:56:45;4.05;;;0.80;;
17369;SDS011;8802;52.402;4.920;2023-10-08T10:59:13;2.47;;;0.80;;
17369;SDS011;8802;52.402;4.920;2023-10-08T11:01:44;1.77;;;0.75;;
17369;SDS011;8802;52.402;4.920;2023-10-08T11:04:17;2.60;;;0.82;;
17369;SDS011;8802;52.402;4.920;2023-10-08T11:06:46;2.50;;;0.70;;
17369;SDS011;8802;52.402;4.920;2023-10-08T11:09:19;1.73;;;0.70;;
17369;SDS011;8802;52.402;4.920;2023-10-08T11:12:01;2.00;;;0.80;;
17369;SDS011;8802;52.402;4.920;2023-10-08T11:14:35;2.45;;;0.85;;
17369;SDS011;8802;52.402;4.920;2023-10-08T11:17:09;2.55;;;0.70;;
17369;SDS011;8802;52.402;4.920;2023-10-08T11:19:37;2.80;;;0.80;;
17369;SDS011;8802;52.402;4.920;2023-10-08T11:22:05;2.85;;;1.15;;
17369;SDS011;8802;52.402;4.920;2023-10-08T11:24:33;2.50;;;0.70;;
17369;SDS011;8802;52.402;4.920;2023-10-08T11:27:00;4.25;;;0.90;;
17369;SDS011;8802;52.402;4.920;2023-10-08T11:29:40;3.95;;;0.95;;
17369;SDS011;8802;52.402;4.920;2023-10-08T11:32:08;2.88;;;0.80;;
17369;SDS011;8802;52.402;4.920;2023-10-08T11:34:37;2.03;;;0.60;;
17369;SDS011;8802;52.402;4.920;2023-10-08T11:37:06;2.95;;;0.80;;
17369;SDS011;8802;52.402;4.920;2023-10-08T11:39:45;2.55;;;0.90;;
17369;SDS011;8802;52.402;4.920;2023-10-08T11:42:12;3.15;;;0.90;;
17369;SDS011;8802;52.402;4.920;2023-10-08T11:44:57;2.10;;;0.80;;
17369;SDS011;8802;52.402;4.920;2023-10-08T11:47:24;2.20;;;0.75;;
17369;SDS011;8802;52.402;4.920;2023-10-08T11:49:56;2.20;;;0.80;;
17369;SDS011;8802;52.402;4.920;2023-10-08T11:52:36;3.30;;;1.08;;
17369;SDS011;8802;52.402;4.920;2023-10-08T11:55:07;2.67;;;1.08;;
17369;SDS011;8802;52.402;4.920;2023-10-08T11:57:35;1.75;;;1.02;;
17369;SDS011;8802;52.402;4.920;2023-10-08T12:00:10;1.50;;;1.00;;
17369;SDS011;8802;52.402;4.920;2023-10-08T12:02:44;2.33;;;1.05;;
17369;SDS011;8802;52.402;4.920;2023-10-08T12:05:11;2.22;;;1.20;;
17369;SDS011;8802;52.402;4.920;2023-10-08T12:07:45;3.17;;;1.20;;
17369;SDS011;8802;52.402;4.920;2023-10-08T12:10:13;2.08;;;1.15;;
17369;SDS011;8802;52.402;4.920;2023-10-08T12:12:42;3.17;;;1.00;;
17369;SDS011;8802;52.402;4.920;2023-10-08T12:15:11;1.83;;;1.00;;
17369;SDS011;8802;52.402;4.920;2023-10-08T12:17:44;3.38;;;1.52;;
17369;SDS011;8802;52.402;4.920;2023-10-08T12:20:32;2.20;;;1.10;;
17369;SDS011;8802;52.402;4.920;2023-10-08T12:23:01;3.15;;;1.20;;
17369;SDS011;8802;52.402;4.920;2023-10-08T12:25:28;2.15;;;1.08;;
17369;SDS011;8802;52.402;4.920;2023-10-08T12:27:57;2.05;;;0.80;;
17369;SDS011;8802;52.402;4.920;2023-10-08T12:30:27;3.30;;;1.10;;
17369;SDS011;8802;52.402;4.920;2023-10-08T12:32:56;4.18;;;1.38;;
17369;SDS011;8802;52.402;4.920;2023-10-08T12:35:24;3.03;;;1.23;;
17369;SDS011;8802;52.402;4.920;2023-10-08T12:37:52;3.38;;;1.42;;
17369;SDS011;8802;52.402;4.920;2023-10-08T12:40:21;3.08;;;1.52;;
17369;SDS011;8802;52.402;4.920;2023-10-08T12:43:07;3.15;;;1.17;;
17369;SDS011;8802;52.402;4.920;2023-10-08T12:45:34;3.85;;;1.20;;
17369;SDS011;8802;52.402;4.920;2023-10-08T12:48:03;3.67;;;1.05;;
17369;SDS011;8802;52.402;4.920;2023-10-08T12:50:33;3.35;;;1.65;;
17369;SDS011;8802;52.402;4.920;2023-10-08T12:53:07;3.00;;;1.40;;
17369;SDS011;8802;52.402;4.920;2023-10-08T12:55:37;3.30;;;1.48;;
17369;SDS011;8802;52.402;4.920;2023-10-08T12:58:05;2.47;;;1.20;;
17369;SDS011;8802;52.402;4.920;2023-10-08T13:00:35;4.72;;;1.60;;
17369;SDS011;8802;52.402;4.920;2023-10-08T13:03:04;2.55;;;1.08;;
17369;SDS011;8802;52.402;4.920;2023-10-08T13:05:40;4.25;;;1.55;;
17369;SDS011;8802;52.402;4.920;2023-10-08T13:08:09;5.35;;;1.58;;
17369;SDS011;8802;52.402;4.920;2023-10-08T13:10:40;2.15;;;1.27;;
17369;SDS011;8802;52.402;4.920;2023-10-08T13:13:09;2.10;;;1.30;;
17369;SDS011;8802;52.402;4.920;2023-10-08T13:15:37;2.88;;;1.70;;
17369;SDS011;8802;52.402;4.920;2023-10-08T13:18:04;2.90;;;1.52;;
17369;SDS011;8802;52.402;4.920;2023-10-08T13:20:31;1.77;;;1.20;;
17369;SDS011;8802;52.402;4.920;2023-10-08T13:22:59;3.05;;;1.52;;
17369;SDS011;8802;52.402;4.920;2023-10-08T13:25:26;2.70;;;1.63;;
17369;SDS011;8802;52.402;4.920;2023-10-08T13:27:57;5.50;;;1.42;;
17369;SDS011;8802;52.402;4.920;2023-10-08T13:30:23;4.00;;;2.00;;
17369;SDS011;8802;52.402;4.920;2023-10-08T13:32:51;2.90;;;1.60;;
17369;SDS011;8802;52.402;4.920;2023-10-08T13:35:18;2.40;;;1.48;;
17369;SDS011;8802;52.402;4.920;2023-10-08T13:37:45;3.47;;;1.70;;
17369;SDS011;8802;52.402;4.920;2023-10-08T13:40:13;2.63;;;1.30;;
17369;SDS011;8802;52.402;4.920;2023-10-08T13:42:41;3.20;;;1.73;;
17369;SDS011;8802;52.402;4.920;2023-10-08T13:45:09;3.13;;;2.00;;
17369;SDS011;8802;52.402;4.920;2023-10-08T13:47:51;3.20;;;2.08;;
17369;SDS011;8802;52.402;4.920;2023-10-08T13:50:18;3.63;;;2.20;;
17369;SDS011;8802;52.402;4.920;2023-10-08T13:52:46;2.55;;;2.20;;
17369;SDS011;8802;52.402;4.920;2023-10-08T13:55:14;3.15;;;2.00;;
17369;SDS011;8802;52.402;4.920;2023-10-08T13:57:44;3.70;;;2.30;;
17369;SDS011;8802;52.402;4.920;2023-10-08T14:00:15;3.88;;;2.10;;
17369;SDS011;8802;52.402;4.920;2023-10-08T14:02:45;2.33;;;1.98;;
17369;SDS011;8802;52.402;4.920;2023-10-08T14:05:16;3.00;;;2.00;;
17369;SDS011;8802;52.402;4.920;2023-10-08T14:07:43;2.95;;;2.42;;
17369;SDS011;8802;52.402;4.920;2023-10-08T14:10:10;3.75;;;2.35;;
17369;SDS011;8802;52.402;4.920;2023-10-08T14:12:44;3.80;;;2.67;;
17369;SDS011;8802;52.402;4.920;2023-10-08T14:15:15;3.10;;;2.53;;
17369;SDS011;8802;52.402;4.920;2023-10-08T14:17:43;4.45;;;2.17;;
17369;SDS011;8802;52.402;4.920;2023-10-08T14:20:13;4.90;;;3.00;;
17369;SDS011;8802;52.402;4.920;2023-10-08T14:22:47;4.28;;;2.58;;
17369;SDS011;8802;52.402;4.920;2023-10-08T14:25:22;5.78;;;3.17;;
17369;SDS011;8802;52.402;4.920;2023-10-08T14:27:53;3.80;;;3.08;;
17369;SDS011;8802;52.402;4.920;2023-10-08T14:30:31;3.92;;;2.97;;
17369;SDS011;8802;52.402;4.920;2023-10-08T14:33:00;3.38;;;3.00;;
17369;SDS011;8802;52.402;4.920;2023-10-08T14:35:28;3.20;;;2.70;;
17369;SDS011;8802;52.402;4.920;2023-10-08T14:38:16;3.30;;;2.60;;
17369;SDS011;8802;52.402;4.920;2023-10-08T14:41:00;3.83;;;3.20;;
17369;SDS011;8802;52.402;4.920;2023-10-08T14:43:45;3.53;;;3.13;;
17369;SDS011;8802;52.402;4.920;2023-10-08T14:46:14;2.88;;;2.53;;
17369;SDS011;8802;52.402;4.920;2023-10-08T14:48:43;3.75;;;2.58;;
17369;SDS011;8802;52.402;4.920;2023-10-08T14:51:11;4.30;;;2.97;;
17369;SDS011;8802;52.402;4.920;2023-10-08T14:53:44;7.45;;;3.67;;
17369;SDS011;8802;52.402;4.920;2023-10-08T14:56:12;3.33;;;3.03;;
17369;SDS011;8802;52.402;4.920;2023-10-08T14:58:41;4.95;;;2.97;;
17369;SDS011;8802;52.402;4.920;2023-10-08T15:01:08;3.45;;;3.15;;
17369;SDS011;8802;52.402;4.920;2023-10-08T15:03:39;3.97;;;3.33;;
17369;SDS011;8802;52.402;4.920;2023-10-08T15:06:06;5.43;;;3.08;;
17369;SDS011;8802;52.402;4.920;2023-10-08T15:08:35;4.28;;;3.17;;
17369;SDS011;8802;52.402;4.920;2023-10-08T15:11:02;3.72;;;3.22;;
17369;SDS011;8802;52.402;4.920;2023-10-08T15:13:31;3.40;;;2.90;;
17369;SDS011;8802;52.402;4.920;2023-10-08T15:16:00;3.63;;;3.17;;
17369;SDS011;8802;52.402;4.920;2023-10-08T15:18:30;6.80;;;3.67;;
17369;SDS011;8802;52.402;4.920;2023-10-08T15:21:08;4.13;;;3.17;;
17369;SDS011;8802;52.402;4.920;2023-10-08T15:23:36;4.40;;;3.65;;
17369;SDS011;8802;52.402;4.920;2023-10-08T15:26:04;3.85;;;3.22;;
17369;SDS011;8802;52.402;4.920;2023-10-08T15:28:31;3.95;;;3.30;;
17369;SDS011;8802;52.402;4.920;2023-10-08T15:30:58;4.25;;;3.83;;